Tiempo atmosférico en la estación meteorológica de Abia De Obispalia, Cuenca (1020 m.)



Fecha
DESCASC
Temp. máxima en grados centígrados (hora)
DESCASC
Temp. mínima en grados centígrados (hora)
DESCASC
Temp. media en grados centígrados
DESCASC
Racha de viento máxima en m/sg (hora)
DESCASC
Velocidad máxima media en intervalos de 10 minutos(hora)
DESCASC
Precipitaciones diarias en mm
DESCASC
Precipitaciones de 00:00 a 06:00 en mm
DESCASC
Precipitaciones de 06:00 a 12:00 en mm
DESCASC
Precipitaciones de 12:00 a 18:00 en mm
DESCASC
Precipitaciones de 18:00 a 24:00 en mm
DESCASC
24-01-2021 9.3 (15:00) 4.5 (22:10) 6.9 15.56 (03:40) 8.89 (01:20) 0.2 0.2 0 0 0
23-01-2021 7.8 (23:50) 1.8 (05:00) 4.8 13.06 (23:40) 7.22 (23:30) 5.2 0 0 0.6 4.6
22-01-2021 8.4 (06:10) 2.6 (23:50) 5.5 22.5 (08:00) 11.39 (07:30) 9.4 6.2 2.8 0.4 0
21-01-2021 -- (--) -- (--) -- -- (--) -- (--) -- -- -- 0 0.8
20-01-2021 -- (--) -- (--) -- -- (--) -- (--) -- 0 1.6 0 --
19-01-2021 10.6 (14:30) -6.4 (-00:0) 2.1 4.17 (23:59) 3.06 (23:59) 0 0 0 0 0
18-01-2021 12.1 (14:10) -5.8 (-00:0) 3.2 4.72 (14:30) 2.78 (15:50) 0 0 0 0 0
17-01-2021 14.1 (13:30) -3.5 (-00:0) 5.3 4.44 (15:40) 2.22 (16:20) 0 0 0 0 0
16-01-2021 10.8 (16:50) -1.7 (-00:0) 4.6 9.44 (11:20) 5 (11:20) 0 0 0 0 0
15-01-2021 8.6 (13:30) -1.4 (-00:0) 3.6 8.06 (16:00) 4.17 (16:10) 0 0 0 0 0
14-01-2021 12.4 (13:40) -3.9 (02:20) 4.2 8.06 (22:00) 4.17 (19:20) 0 0 0 0 0
13-01-2021 10.5 (14:00) -8.4 (-00:0) 1.1 5.83 (20:50) 2.78 (08:40) 0 0 0 0 0
12-01-2021 6.8 (14:00) -14.8 (-00:0) -4 4.72 (13:00) 2.78 (13:00) -- -- -- -- 0
11-01-2021 5.5 (13:50) -12 (-00:0) -3.3 4.17 (10:10) 1.94 (10:40) -- -- -- -- --
10-01-2021 4.6 (16:10) -10.6 (08:00) -3 5.28 (11:00) 2.22 (13:00) -- -- -- -- --
09-01-2021 0.9 (14:10) -4.1 (-00:0) -1.6 12.22 (06:30) 7.78 (06:30) 7.2 0 0.2 7 0
08-01-2021 0.5 (14:50) -1.6 (-00:0) -0.6 8.61 (11:40) 5.28 (11:20) 2 0 0 2 0
07-01-2021 0.2 (14:20) -1.5 (-00:0) -0.6 8.06 (01:20) 5 (01:20) 2.6 0 0.2 2.4 0
06-01-2021 6 (13:50) -6.6 (-00:0) -0.3 5.28 (22:50) 3.33 (17:30) 0 0 0 0 0
05-01-2021 4.7 (14:00) -7.1 (-00:0) -1.2 4.72 (15:40) 2.22 (13:10) 0 0 0 0 0
04-01-2021 2.5 (13:20) -4.5 (-00:0) -1 7.78 (15:30) 4.17 (15:30) 0.2 0 0.2 0 0
03-01-2021 4.2 (13:50) -5.8 (-00:0) -0.8 8.61 (00:40) 4.17 (13:10) 0 0 0 0 0
02-01-2021 1.5 (14:50) -5.6 (-00:0) -2 13.89 (14:10) 7.22 (12:50) 0.6 0 0.6 0 0
01-01-2021 4.4 (13:50) -2.5 (-00:0) 1 9.72 (15:20) 5.28 (15:20) 4.2 0.2 3.8 0.2 0
31-12-2020 5.7 (14:00) -5.7 (-00:0) 0 8.33 (15:00) 5 (15:00) 1.2 0 0 0 1.2
30-12-2020 5.1 (13:30) -5.3 (-00:0) -0.1 6.67 (14:10) 3.61 (14:20) 0 0 0 0 0
29-12-2020 4.2 (16:20) -0.9 (-00:0) 1.6 10.56 (17:30) 6.11 (17:30) 0 0 0 0 0
28-12-2020 6.1 (13:50) 0.8 (00:00) 3.4 18.61 (07:00) 9.17 (06:40) 1.2 0.4 0.8 0 0
27-12-2020 6.7 (13:50) -4.4 (-00:0) 1.1 9.17 (23:59) 3.89 (22:40) 0 0 0 0 0
26-12-2020 6.7 (16:40) -4.6 (-00:0) 1 11.11 (10:30) 6.11 (10:30) 0 0 0 0 0

Gráficas

Temp. máximas Temp. mínimas Temp. medias Precipitaciones Rachas de viento máximas Velocidades máximas media en intervalos de 10 minutos

Datos horarios

Fecha y hora oficial Temperatura (ºC) Velocidad del viento (km/h) Dirección del viento Racha (km/h) Dirección de racha Precipitación (mm) Presión (hPa) Tendencia (hPa) Humedad (%)
2021-01-24 23:00:00 4.6 9 Oeste 22 Oeste 0 -- -- 94
2021-01-24 22:00:00 4.6 10 Noroeste 22 Oeste 0 -- -- 94
2021-01-24 21:00:00 4.9 9 Oeste 22 Oeste 0 -- -- 94
2021-01-24 20:00:00 5.4 6 Oeste 22 Oeste 0 -- -- 90
2021-01-24 19:00:00 5.9 7 Oeste 24 Noroeste 0 -- -- 83
2021-01-24 18:00:00 6.8 12 Noroeste 30 Oeste 0 -- -- 74
2021-01-24 17:00:00 8.4 13 Noroeste 29 Noroeste 0 -- -- 67
2021-01-24 16:00:00 8.6 14 Noroeste 38 Noroeste 0 -- -- 64
2021-01-24 15:00:00 9.3 19 Noroeste 36 Oeste 0 -- -- 66
2021-01-24 14:00:00 7.7 13 Noroeste 30 Oeste 0 -- -- 77
2021-01-24 13:00:00 7.8 14 Noroeste 33 Oeste 0 -- -- 79
2021-01-24 12:00:00 7.5 17 Noroeste 34 Oeste 0 -- -- 76
2021-01-24 11:00:00 6.6 16 Noroeste 32 Oeste 0 -- -- 82
2021-01-24 10:00:00 5.4 10 Oeste 28 Oeste 0 -- -- 90
2021-01-24 09:00:00 4.7 12 Oeste 32 Oeste 0 -- -- 95
2021-01-24 08:00:00 5.6 14 Noroeste 33 Noroeste 0 -- -- 89
2021-01-24 07:00:00 6 18 Noroeste 33 Oeste 0 -- -- 92
2021-01-24 06:00:00 6.7 12 Noroeste 39 Oeste 0 -- -- 94
2021-01-24 05:00:00 7.4 18 Noroeste 51 Oeste 0 -- -- 95
2021-01-24 04:00:00 7.9 25 Oeste 56 Oeste 0 -- -- 90
2021-01-24 03:00:00 8.6 26 Oeste 53 Oeste 0 -- -- 97
2021-01-24 02:00:00 8.5 21 Noroeste 55 Oeste 0 -- -- 100
2021-01-24 01:00:00 8.2 30 Oeste 53 Oeste 0.2 -- -- 100
2021-01-24 00:00:00 7.8 26 Oeste 47 Oeste 1 -- -- 100
2021-01-23 23:00:00 7.2 23 Oeste 46 Oeste 0.4 -- -- 100
2021-01-23 22:00:00 6.4 13 Oeste 40 Sudoeste 1 -- -- 100
2021-01-23 21:00:00 5.8 8 Oeste 42 Sudoeste 0.4 -- -- 100
2021-01-23 20:00:00 5.3 12 Sudoeste 40 Sudoeste 0.8 -- -- 100
2021-01-23 19:00:00 5.1 10 Sudoeste 42 Sudoeste 1 -- -- 100
2021-01-23 18:00:00 5.1 8 Sudoeste 34 Sur 0 -- -- 100
2021-01-23 17:00:00 4.7 8 Oeste 27 Oeste 0 -- -- 100
2021-01-23 16:00:00 4.3 7 Oeste 37 Oeste 0.4 -- -- 97
2021-01-23 15:00:00 4.5 14 Oeste 35 Oeste 0.2 -- -- 91
2021-01-23 14:00:00 4.7 21 Oeste 36 Oeste 0 -- -- 88
2021-01-23 13:00:00 4.3 18 Oeste 41 Oeste 0 -- -- 90
2021-01-23 12:00:00 3.4 14 Oeste 29 Oeste 0 -- -- 93
2021-01-23 11:00:00 2.8 16 Oeste 38 Oeste 0 -- -- 95
2021-01-23 10:00:00 2.3 16 Oeste 36 Oeste 0 -- -- 97
2021-01-23 09:00:00 1.8 8 Oeste 28 Oeste 0 -- -- 96
2021-01-23 08:00:00 2.2 14 Oeste 38 Oeste 0 -- -- 95
2021-01-23 07:00:00 2.2 21 Noroeste 44 Oeste 0 -- -- 94
2021-01-23 06:00:00 2.1 19 Noroeste 46 Noroeste 0 -- -- 94
2021-01-23 05:00:00 1.8 16 Oeste 36 Oeste 0 -- -- 94
2021-01-23 04:00:00 2.1 17 Oeste 33 Oeste 0 -- -- 95
2021-01-23 03:00:00 1.9 9 Oeste 25 Oeste 0 -- -- 97
2021-01-23 02:00:00 2 12 Oeste 28 Sudoeste 0 -- -- 97
2021-01-23 01:00:00 2.2 13 Oeste 26 Oeste 0 -- -- 98
2021-01-23 00:00:00 2.6 11 Oeste 27 Oeste 0 -- -- 99
2021-01-22 23:00:00 2.7 12 Oeste 32 Oeste 0 -- -- 98
2021-01-22 22:00:00 2.8 12 Oeste 28 Oeste 0 -- -- 96
2021-01-22 21:00:00 3.1 15 Noroeste 33 Oeste 0 -- -- 96
2021-01-22 20:00:00 3.6 14 Noroeste 35 Oeste 0 -- -- 94
2021-01-22 19:00:00 4 15 Noroeste 33 Oeste 0 -- -- 92
2021-01-22 18:00:00 4.5 15 Noroeste 41 Oeste 0 -- -- 90
2021-01-22 17:00:00 4.8 19 Noroeste 42 Oeste 0 -- -- 91
2021-01-22 16:00:00 4.9 18 Noroeste 41 Noroeste 0 -- -- 94
2021-01-22 15:00:00 4.7 19 Noroeste 43 Noroeste 0.4 -- -- 95
2021-01-22 14:00:00 5.3 22 Noroeste 54 Oeste 0 -- -- 89
2021-01-22 13:00:00 5.2 26 Noroeste 54 Oeste 0 -- -- 88
2021-01-22 12:00:00 5.1 26 Noroeste 57 Noroeste 0 -- -- 89
2021-01-22 11:00:00 5 26 Oeste 61 Oeste 0 -- -- 88
2021-01-22 10:00:00 5 30 Oeste 69 Noroeste 0 -- -- 87
2021-01-22 09:00:00 5.1 31 Noroeste 76 Oeste 0 -- -- 89
2021-01-22 08:00:00 4.1 41 Oeste 81 Oeste 2.8 -- -- 92
2021-01-22 07:00:00 8.2 24 Oeste 70 Oeste 0 -- -- 95
2021-01-22 06:00:00 8.3 21 Oeste 64 Noroeste 0 -- -- 98
2021-01-22 05:00:00 7.8 19 Sudoeste 47 Sudoeste 0.2 -- -- 98
2021-01-22 04:00:00 7.7 12 Oeste 41 Sudoeste 1.8 -- -- 100
2021-01-22 03:00:00 7.2 13 Sudoeste 36 Sur 2.6 -- -- 100
2021-01-22 02:00:00 7.2 11 Sur 41 Sudoeste 0.8 -- -- 100
2021-01-22 01:00:00 7.1 15 Sudoeste 39 Sudoeste 0.8 -- -- 100
2021-01-22 00:00:00 7 11 Sudoeste 37 Oeste 0 -- -- 100
2021-01-21 23:00:00 6.8 9 Oeste 38 Oeste 0.2 -- -- 100
2021-01-21 22:00:00 6.7 8 Sudoeste 28 Oeste 0.2 -- -- 100
2021-01-21 21:00:00 6.6 14 Oeste 33 Oeste 0 -- -- 100
2021-01-21 20:00:00 6.5 12 Oeste 31 Oeste 0 -- -- 100
2021-01-21 19:00:00 6.3 14 Oeste 32 Oeste 0.4 -- -- 100
2021-01-21 18:00:00 6.2 15 Oeste 33 Noroeste 0 -- -- 100
2021-01-21 17:00:00 6.2 10 Oeste 26 Noroeste 0 -- -- 99
2021-01-21 16:00:00 6.5 6 Oeste 24 Oeste 0 -- -- 97
2021-01-21 15:00:00 6.4 8 Oeste 21 Oeste 0 -- -- 100
2021-01-21 14:00:00 5.7 7 Oeste 30 Sudoeste 0 -- -- 100
2021-01-21 13:00:00 5.4 12 Oeste 27 Oeste 0 -- -- 100
2021-01-21 12:00:00 4.9 11 Oeste 25 Oeste 0 -- -- 100
2021-01-21 11:00:00 4.5 8 Oeste 21 Oeste 0 -- -- 100
2021-01-21 10:00:00 4.5 9 Oeste 20 Oeste 0 -- -- 100
2021-01-21 09:00:00 3.9 5 Noroeste 17 Noroeste 0 -- -- 100
2021-01-21 08:00:00 -- -- -- -- -- -- -- -- --
2021-01-21 07:00:00 -- -- -- -- -- -- -- -- --
2021-01-21 06:00:00 -- -- -- -- -- -- -- -- --
2021-01-21 05:00:00 -- -- -- -- -- -- -- -- --
2021-01-21 04:00:00 -- -- -- -- -- -- -- -- --
2021-01-21 03:00:00 -- -- -- -- -- -- -- -- --
2021-01-21 02:00:00 -- -- -- -- -- -- -- -- --
2021-01-21 01:00:00 -- -- -- -- -- -- -- -- --
2021-01-21 00:00:00 -- -- -- -- -- -- -- -- --
2021-01-20 23:00:00 -- -- -- -- -- -- -- -- --
2021-01-20 22:00:00 -- -- -- -- -- -- -- -- --
2021-01-20 21:00:00 -- -- -- -- -- -- -- -- --
2021-01-20 20:00:00 -- -- -- -- -- -- -- -- --
2021-01-20 19:00:00 3.8 8 Sur 21 Sur 0 -- -- 100
2021-01-20 18:00:00 3.1 11 Sur 19 Sur 0 -- -- 100
2021-01-20 17:00:00 3 13 Sur 21 Sur 0 -- -- 100
2021-01-20 16:00:00 3.1 13 Sur 25 Sur 0 -- -- 99
2021-01-20 15:00:00 3.1 16 Sur 33 Sur 0 -- -- 100
2021-01-20 14:00:00 2.5 14 Sur 28 Sur 0 -- -- 99
2021-01-20 13:00:00 2 18 Sur 34 Sudeste 0 -- -- 98
2021-01-20 12:00:00 2.3 17 Sudeste 25 Sudeste 0.8 -- -- 97
2021-01-20 11:00:00 2.1 11 Sudeste 21 Sur 0.6 -- -- 96
2021-01-20 10:00:00 2.2 12 Sur 19 Sur 0.2 -- -- 93
2021-01-20 09:00:00 2.5 10 Sudeste 15 Sur 0 -- -- 91
2021-01-20 08:00:00 2.5 8 Sur 17 Sur 0 -- -- 90
2021-01-20 07:00:00 1.6 4 Sudeste 9 Sudeste 0 -- -- 92
2021-01-20 06:00:00 1.7 4 Sudeste 11 Sur 0 -- -- 88
2021-01-20 05:00:00 0.6 4 Sur 8 Sur 0 -- -- 86
2021-01-20 04:00:00 0.5 4 Sur 13 Sur 0 -- -- 80
2021-01-20 03:00:00 1.1 6 Sur 17 Sur 0 -- -- 75
2021-01-20 02:00:00 0.6 0 Calma 17 Sur 0 -- -- 76
2021-01-20 01:00:00 1 10 Sudeste 15 Sur 0 -- -- 76
2021-01-20 00:00:00 0.9 11 Sudeste 15 Sur 0 -- -- 78
2021-01-19 23:00:00 0.3 10 Sur 13 Sur 0 -- -- 80
2021-01-19 22:00:00 0.3 6 Sur 9 Sur 0 -- -- 79
2021-01-19 21:00:00 -0.3 0 Calma 4 Sudeste 0 -- -- 84
2021-01-19 20:00:00 0.6 2 Sudeste 8 Sur 0 -- -- 81
2021-01-19 19:00:00 0.8 3 Sur 9 Sur 0 -- -- 84
2021-01-19 18:00:00 3.1 5 Sur 9 Sur 0 -- -- 75
2021-01-19 17:00:00 7.6 5 Sur 10 Sudoeste 0 -- -- 60
2021-01-19 16:00:00 8.5 4 Sur 12 Sudoeste 0 -- -- 59
2021-01-19 15:00:00 10 4 Sur 9 Oeste 0 -- -- 54
2021-01-19 14:00:00 10 4 Sudoeste 13 Sudoeste 0 -- -- 55
2021-01-19 13:00:00 9.7 5 Sudeste 10 Sudeste 0 -- -- 56
2021-01-19 12:00:00 7.6 0 Calma 4 Noroeste 0 -- -- 67
2021-01-19 11:00:00 4.5 0 Calma 4 Noroeste 0 -- -- 76
2021-01-19 10:00:00 -1 0 Calma 3 Sudeste 0 -- -- 97
2021-01-19 09:00:00 -5.9 2 Sudeste 2 Sudeste 0 -- -- 98
2021-01-19 08:00:00 -6.4 0 Calma 0 Calma 0 -- -- 96
2021-01-19 07:00:00 -6.2 0 Calma 2 Sudeste 0 -- -- 97
2021-01-19 06:00:00 -6.2 0 Calma 3 Sur 0 -- -- 97
2021-01-19 05:00:00 -6.4 0 Calma 2 Sudeste 0 -- -- 97
2021-01-19 04:00:00 -6.1 0 Calma 0 Calma 0 -- -- 97
2021-01-19 03:00:00 -5.9 0 Calma 2 Sudeste 0 -- -- 96
2021-01-19 02:00:00 -5.3 0 Calma 2 Noroeste 0 -- -- 95
2021-01-19 01:00:00 -4.1 0 Calma 2 Sur 0 -- -- 96
2021-01-19 00:00:00 -3.6 2 Sur 4 Sur 0 -- -- 96
2021-01-18 23:00:00 -3.5 0 Calma 3 Sur 0 -- -- 94
2021-01-18 22:00:00 -3.3 0 Calma 2 Sudoeste 0 -- -- 93
2021-01-18 21:00:00 -2.2 0 Calma 2 Este 0 -- -- 92
2021-01-18 20:00:00 -0.9 0 Calma 2 Sudoeste 0 -- -- 87
2021-01-18 19:00:00 1.9 2 Noroeste 10 Noroeste 0 -- -- 82
2021-01-18 18:00:00 5.8 6 Noroeste 11 Noroeste 0 -- -- 69
2021-01-18 17:00:00 10 5 Noroeste 17 Noroeste 0 -- -- 54
2021-01-18 16:00:00 9.5 10 Noroeste 16 Noroeste 0 -- -- 55
2021-01-18 15:00:00 10.6 7 Noroeste 17 Noroeste 0 -- -- 51
2021-01-18 14:00:00 11.8 5 Noroeste 10 Noroeste 0 -- -- 48
2021-01-18 13:00:00 10.3 4 Oeste 7 Oeste 0 -- -- 54
2021-01-18 12:00:00 9.7 0 Calma 2 Sur 0 -- -- 56
2021-01-18 11:00:00 4.5 0 Calma 2 Sur 0 -- -- 70
2021-01-18 10:00:00 -1 0 Calma 3 Sur 0 -- -- 89
2021-01-18 09:00:00 -5.7 0 Calma 0 Calma 0 -- -- 96
2021-01-18 08:00:00 -5.3 0 Calma 3 Oeste 0 -- -- 94
2021-01-18 07:00:00 -3.5 0 Calma 3 Oeste 0 -- -- 95
2021-01-18 06:00:00 -3.6 0 Calma 2 Noroeste 0 -- -- 95
2021-01-18 05:00:00 -3.6 0 Calma 2 Norte 0 -- -- 93
2021-01-18 04:00:00 -3.3 0 Calma 3 Norte 0 -- -- 96
2021-01-18 03:00:00 -3.6 0 Calma 2 Sudoeste 0 -- -- 88
2021-01-18 02:00:00 -1.6 0 Calma 3 Sur 0 -- -- 89
2021-01-18 01:00:00 -2.7 0 Calma 2 Sudoeste 0 -- -- 87
2021-01-18 00:00:00 -3 0 Calma 3 Oeste 0 -- -- 84
2021-01-17 23:00:00 -1.6 0 Calma 5 Nordeste 0 -- -- 78
2021-01-17 22:00:00 2.1 0 Calma 13 Nordeste 0 -- -- 66
2021-01-17 21:00:00 2.1 0 Calma 6 Nordeste 0 -- -- 66
2021-01-17 20:00:00 1.6 0 Calma 6 Norte 0 -- -- 65
2021-01-17 19:00:00 3.3 0 Calma 8 Oeste 0 -- -- 50
2021-01-17 18:00:00 7 3 Noroeste 11 Noroeste 0 -- -- 44
2021-01-17 17:00:00 11.5 5 Noroeste 16 Noroeste 0 -- -- 32
2021-01-17 16:00:00 12 8 Noroeste 16 Noroeste 0 -- -- 32
2021-01-17 15:00:00 12.8 6 Noroeste 14 Noroeste 0 -- -- 27
2021-01-17 14:00:00 14 5 Noroeste 10 Noroeste 0 -- -- 25
2021-01-17 13:00:00 13.5 4 Noroeste 9 Noroeste 0 -- -- 24
2021-01-17 12:00:00 10.9 3 Noroeste 8 Norte 0 -- -- 27
2021-01-17 11:00:00 4.9 0 Calma 3 Este 0 -- -- 45
2021-01-17 10:00:00 0.9 0 Calma 3 Sur 0 -- -- 46
2021-01-17 09:00:00 -2.5 0 Calma 5 Norte 0 -- -- 52
2021-01-17 08:00:00 -2.7 0 Calma 4 Norte 0 -- -- 53
2021-01-17 07:00:00 -3.5 0 Calma 4 Sudeste 0 -- -- 59
2021-01-17 06:00:00 -3.4 0 Calma 4 Norte 0 -- -- 59
2021-01-17 05:00:00 -2.9 2 Noroeste 8 Noroeste 0 -- -- 57
2021-01-17 04:00:00 -2.2 0 Calma 4 Noroeste 0 -- -- 56
2021-01-17 03:00:00 0.1 2 Noroeste 6 Oeste 0 -- -- 49
2021-01-17 02:00:00 0.2 0 Calma 13 Noroeste 0 -- -- 48
2021-01-17 01:00:00 3.6 6 Noroeste 13 Noroeste 0 -- -- 38
2021-01-17 00:00:00 2.6 4 Noroeste 14 Noroeste 0 -- -- 41
2021-01-16 23:00:00 2.5 5 Noroeste 13 Noroeste 0 -- -- 43
2021-01-16 22:00:00 2.8 5 Oeste 10 Noroeste 0 -- -- 42
2021-01-16 21:00:00 0.1 0 Calma 6 Norte 0 -- -- 58
2021-01-16 20:00:00 -0.9 0 Calma 4 Oeste 0 -- -- 64
2021-01-16 19:00:00 0.3 0 Calma 3 Sudoeste 0 -- -- 64
2021-01-16 18:00:00 5.8 3 Noroeste 10 Noroeste 0 -- -- 45
2021-01-16 17:00:00 10.8 2 Noroeste 14 Norte 0 -- -- 34
2021-01-16 16:00:00 10.3 6 Norte 20 Norte 0.6 -- -- 32
2021-01-16 15:00:00 9.9 8 Norte 21 Norte 0 -- -- 35
2021-01-16 14:00:00 10.6 8 Noroeste 20 Norte 0 -- -- 35
2021-01-16 13:00:00 9.3 12 Norte 23 Norte 0 -- -- 37
2021-01-16 12:00:00 7.1 14 Norte 34 Norte 0 -- -- 41
2021-01-16 11:00:00 4.7 15 Norte 24 Norte 0 -- -- 48
2021-01-16 10:00:00 2.2 6 Norte 23 Nordeste 0 -- -- 57
2021-01-16 09:00:00 0.2 10 Norte 22 Norte 0 -- -- 66
2021-01-16 08:00:00 0.5 12 Norte 28 Norte 0 -- -- 66
2021-01-16 07:00:00 0.5 16 Norte 27 Norte 0 -- -- 68
2021-01-16 06:00:00 -1.4 6 Noroeste 20 Norte 0 -- -- 78
2021-01-16 05:00:00 -1.3 5 Noroeste 14 Noroeste 0 -- -- 79
2021-01-16 04:00:00 -1 5 Norte 23 Norte 0 -- -- 79
2021-01-16 03:00:00 -1.5 6 Norte 19 Norte 0 -- -- 83
2021-01-16 02:00:00 -0.9 6 Noroeste 18 Norte 0 -- -- 83
2021-01-16 01:00:00 -0.3 7 Noroeste 17 Noroeste 0 -- -- 83
2021-01-16 00:00:00 0.4 6 Norte 17 Norte 0 -- -- 79
2021-01-15 23:00:00 1.3 8 Norte 20 Norte 0 -- -- 77
2021-01-15 22:00:00 1 5 Norte 20 Norte 0 -- -- 76
2021-01-15 21:00:00 1.7 6 Noroeste 20 Norte 0 -- -- 72
2021-01-15 20:00:00 1.5 5 Norte 14 Noroeste 0 -- -- 72
2021-01-15 19:00:00 1.7 5 Noroeste 13 Norte 0 -- -- 70
2021-01-15 18:00:00 3.9 9 Norte 21 Norte 0 -- -- 63
2021-01-15 17:00:00 6.7 10 Norte 28 Norte 0 -- -- 55
2021-01-15 16:00:00 6.9 12 Norte 29 Norte 0 -- -- 53
2021-01-15 15:00:00 8 7 Norte 21 Norte 0 -- -- 51
2021-01-15 14:00:00 7.3 8 Norte 22 Norte 0 -- -- 53
2021-01-15 13:00:00 7.7 11 Norte 23 Norte 0 -- -- 51
2021-01-15 12:00:00 6.4 10 Norte 23 Noroeste 0 -- -- 55
2021-01-15 11:00:00 4.2 11 Nordeste 26 Nordeste 0 -- -- 64
2021-01-15 10:00:00 1 6 Norte 19 Norte 0 -- -- 81
2021-01-15 09:00:00 -1.4 3 Norte 13 Norte 0 -- -- 91
2021-01-15 08:00:00 -0.3 3 Norte 21 Norte 0 -- -- 90
2021-01-15 07:00:00 0.4 7 Noroeste 16 Noroeste 0 -- -- 91
2021-01-15 06:00:00 0.4 3 Noroeste 14 Noroeste 0 -- -- 92
2021-01-15 05:00:00 0.2 0 Calma 14 Norte 0 -- -- 92
2021-01-15 04:00:00 0.6 3 Oeste 19 Norte 0 -- -- 90
2021-01-15 03:00:00 0.5 4 Norte 14 Norte 0 -- -- 92
2021-01-15 02:00:00 0.4 4 Norte 11 Norte 0 -- -- 93
2021-01-15 01:00:00 0.1 0 Calma 11 Nordeste 0 -- -- 88
2021-01-15 00:00:00 2.2 5 Norte 24 Norte 0 -- -- 83
2021-01-14 23:00:00 2.2 8 Norte 22 Noroeste 0 -- -- 79
2021-01-14 22:00:00 2.8 14 Norte 29 Norte 0 -- -- 71
2021-01-14 21:00:00 3.2 11 Norte 23 Norte 0 -- -- 59
2021-01-14 20:00:00 3.4 9 Norte 27 Norte 0 -- -- 50
2021-01-14 19:00:00 3 4 Nordeste 10 Norte 0 -- -- 52
2021-01-14 18:00:00 4.8 4 Noroeste 7 Noroeste 0 -- -- 47
2021-01-14 17:00:00 8.9 5 Noroeste 11 Nordeste 0 -- -- 39
2021-01-14 16:00:00 10.1 4 Norte 14 Norte 0 -- -- 33
2021-01-14 15:00:00 10.5 5 Noroeste 16 Norte 0 -- -- 34
2021-01-14 14:00:00 12.3 7 Noroeste 12 Norte 0 -- -- 30
2021-01-14 13:00:00 11.9 6 Norte 13 Nordeste 0 -- -- 29
2021-01-14 12:00:00 9.2 5 Norte 17 Nordeste 0 -- -- 30
2021-01-14 11:00:00 7.1 6 Norte 24 Norte 0 -- -- 32
2021-01-14 10:00:00 4 6 Norte 15 Norte 0 -- -- 37
2021-01-14 09:00:00 0.5 3 Oeste 10 Norte 0 -- -- 49
2021-01-14 08:00:00 0.6 4 Noroeste 14 Norte 0 -- -- 51
2021-01-14 07:00:00 0.3 3 Nordeste 10 Nordeste 0 -- -- 54
2021-01-14 06:00:00 -1.1 6 Norte 15 Norte 0 -- -- 61
2021-01-14 05:00:00 -2.8 2 Sur 8 Nordeste 0 -- -- 65
2021-01-14 04:00:00 0.4 3 Nordeste 19 Norte 0 -- -- 57
2021-01-14 03:00:00 -0.5 6 Norte 14 Norte 0 -- -- 64
2021-01-14 02:00:00 -3.8 0 Calma 4 Norte 0 -- -- 71
2021-01-14 01:00:00 -1.3 2 Oeste 8 Norte 0 -- -- 64
2021-01-14 00:00:00 1.9 4 Noroeste 13 Norte 0 -- -- 56
2021-01-13 23:00:00 1.1 0 Calma 16 Norte 0 -- -- 57
2021-01-13 22:00:00 2.4 5 Norte 21 Norte 0 -- -- 55
2021-01-13 21:00:00 2.5 5 Norte 21 Norte 0 -- -- 54
2021-01-13 20:00:00 0.2 0 Calma 9 Norte 0 -- -- 65
2021-01-13 19:00:00 3 2 Noroeste 16 Norte 0 -- -- 56
2021-01-13 18:00:00 4.7 2 Norte 12 Norte 0 -- -- 52
2021-01-13 17:00:00 9.3 4 Norte 17 Noroeste 0 -- -- 40
2021-01-13 16:00:00 9.4 6 Noroeste 12 Noroeste 0 -- -- 41
2021-01-13 15:00:00 9.9 7 Norte 14 Norte 0 -- -- 40
2021-01-13 14:00:00 10.5 5 Norte 21 Norte 0 -- -- 40
2021-01-13 13:00:00 9.6 8 Norte 19 Norte 0 -- -- 37
2021-01-13 12:00:00 8.7 5 Norte 18 Nordeste 0 -- -- 36
2021-01-13 11:00:00 6.4 6 Este 17 Este 0 -- -- 42
2021-01-13 10:00:00 3.7 6 Noroeste 21 Norte 0 -- -- 50
2021-01-13 09:00:00 0.8 7 Norte 18 Norte 0 -- -- 58
2021-01-13 08:00:00 -0.5 9 Norte 19 Norte 0 -- -- 64
2021-01-13 07:00:00 -1.3 6 Norte 14 Norte 0 -- -- 65
2021-01-13 06:00:00 -2.8 0 Calma 7 Sudoeste 0 -- -- 65
2021-01-13 05:00:00 -1.7 0 Calma 7 Noroeste 0 -- -- 62
2021-01-13 04:00:00 -1.8 3 Noroeste 9 Noroeste 0 -- -- 62
2021-01-13 03:00:00 -3.7 4 Oeste 11 Oeste 0 -- -- 74
2021-01-13 02:00:00 -4.7 2 Norte 11 Noroeste 0 -- -- 76
2021-01-13 01:00:00 -8.4 0 Calma 6 Norte 0 -- -- 82
2021-01-13 00:00:00 -5.3 0 Calma 5 Noroeste 0 -- -- 78
2021-01-12 23:00:00 -6.6 0 Calma 9 Norte 0 -- -- 78
2021-01-12 22:00:00 -8.4 0 Calma 2 Sudeste 0 -- -- 85
2021-01-12 21:00:00 -8.4 0 Calma 2 Este 0 -- -- 83
2021-01-12 20:00:00 -7 0 Calma 3 Norte 0 -- -- 74
2021-01-12 19:00:00 -2.7 0 Calma 10 Noroeste 0 -- -- 64
2021-01-12 18:00:00 -0.8 4 Noroeste 7 Noroeste 0 -- -- 62
2021-01-12 17:00:00 5.1 5 Noroeste 10 Noroeste 0 -- -- 47
2021-01-12 16:00:00 4.9 6 Noroeste 17 Noroeste 0 -- -- 44
2021-01-12 15:00:00 4.5 10 Noroeste 16 Oeste 0 -- -- 43
2021-01-12 14:00:00 6.8 6 Noroeste 15 Noroeste 0 -- -- 40
2021-01-12 13:00:00 5.4 10 Noroeste 17 Norte -- -- -- 41
2021-01-12 12:00:00 3.6 8 Noroeste 15 Noroeste -- -- -- 42
2021-01-12 11:00:00 1.2 5 Noroeste 12 Norte -- -- -- 49
2021-01-12 10:00:00 -2.1 0 Calma 14 Norte -- -- -- 55
2021-01-12 09:00:00 -6 3 Norte 17 Nordeste -- -- -- 68
2021-01-12 08:00:00 -8.4 6 Norte 16 Norte -- -- -- 77
2021-01-12 07:00:00 -14.7 0 Calma 2 Sudoeste -- -- -- 83
2021-01-12 06:00:00 -14.7 0 Calma 2 Sur -- -- -- 83
2021-01-12 05:00:00 -14.1 0 Calma 4 Sudeste -- -- -- 82
2021-01-12 04:00:00 -14.2 0 Calma 5 Nordeste -- -- -- 82
2021-01-12 03:00:00 -13 0 Calma 3 Nordeste -- -- -- 87
2021-01-12 02:00:00 -13.2 2 Este 5 Este -- -- -- 92
2021-01-12 01:00:00 -12.6 3 Sur 5 Sur -- -- -- 88
2021-01-12 00:00:00 -12 0 Calma 3 Norte -- -- -- 83
2021-01-11 23:00:00 -9.3 0 Calma 5 Norte -- -- -- 83
2021-01-11 22:00:00 -8.8 2 Sur 11 Nordeste -- -- -- 79
2021-01-11 21:00:00 -3.8 6 Norte 14 Nordeste -- -- -- 70
2021-01-11 20:00:00 -7.9 3 Norte 10 Norte -- -- -- 83
2021-01-11 19:00:00 -4.4 0 Calma 10 Norte -- -- -- 66
2021-01-11 18:00:00 -2.3 3 Noroeste 6 Oeste -- -- -- 63
2021-01-11 17:00:00 3.1 3 Noroeste 8 Noroeste -- -- -- 48
2021-01-11 16:00:00 3.6 4 Noroeste 10 Noroeste -- -- -- 49
2021-01-11 15:00:00 4.4 3 Noroeste 10 Noroeste -- -- -- 48
2021-01-11 14:00:00 5.4 3 Noroeste 9 Nordeste -- -- -- 46
2021-01-11 13:00:00 3.9 4 Norte 11 Norte 0 -- -- 48
2021-01-11 12:00:00 1.4 5 Norte 11 Norte 0 -- -- 58
2021-01-11 11:00:00 -1.6 4 Norte 15 Nordeste 0 -- -- 71
2021-01-11 10:00:00 -4.9 6 Norte 13 Nordeste 0 -- -- 92
2021-01-11 09:00:00 -7.5 3 Norte 6 Nordeste 0 -- -- 98
2021-01-11 08:00:00 -10.4 0 Calma 3 Noroeste 0 -- -- 94
2021-01-11 07:00:00 -10.6 2 Sur 4 Sur 0 -- -- 96
2021-01-11 06:00:00 -11.4 0 Calma 2 Norte 0 -- -- 94
2021-01-11 05:00:00 -11.3 0 Calma 2 Oeste 0 -- -- 95
2021-01-11 04:00:00 -10.5 0 Calma 3 Noroeste 0 -- -- 94
2021-01-11 03:00:00 -9.3 0 Calma 4 Nordeste 0 -- -- 95
2021-01-11 02:00:00 -7.5 0 Calma 5 Nordeste 0 -- -- 95
2021-01-11 01:00:00 -6.3 0 Calma 5 Nordeste 0 -- -- 98
2021-01-11 00:00:00 -5.8 0 Calma 11 Norte 0 -- -- 97
2021-01-10 23:00:00 -6.2 0 Calma 9 Norte 0 -- -- 96
2021-01-10 22:00:00 -6.1 3 Nordeste 7 Norte 0 -- -- 100
2021-01-10 21:00:00 -7.7 0 Calma 2 Nordeste 0 -- -- 92
2021-01-10 20:00:00 -5.6 0 Calma 2 Noroeste 0 -- -- 89
2021-01-10 19:00:00 -2.5 0 Calma 4 Noroeste 0 -- -- 84
2021-01-10 18:00:00 0.5 0 Calma 10 Norte 0 -- -- 82
2021-01-10 17:00:00 2.8 0 Calma 4 Noroeste 0 -- -- 77
2021-01-10 16:00:00 4.4 0 Calma 7 Sur 0 -- -- 68
2021-01-10 15:00:00 3.9 3 Oeste 5 Noroeste 0.4 -- -- 69
2021-01-10 14:00:00 4.1 0 Calma 11 Sudoeste 1.6 -- -- 67
2021-01-10 13:00:00 2.2 8 Sudoeste 11 Sudoeste 2.8 -- -- 72
2021-01-10 12:00:00 3.1 3 Este 14 Sudeste 3.2 -- -- 69
2021-01-10 11:00:00 0.5 4 Este 19 Este 1.6 -- -- 74
2021-01-10 10:00:00 -2.8 2 Sur 10 Sudeste 0 -- -- 89
2021-01-10 09:00:00 -9.4 4 Sudeste 9 Sudeste 0 -- -- 97
2021-01-10 08:00:00 -10.6 0 Calma 4 Sudeste 0 -- -- 94
2021-01-10 07:00:00 -9.7 0 Calma 2 Sudeste 0 -- -- 94
2021-01-10 06:00:00 -8.6 0 Calma 3 Sudeste 0 -- -- 96
2021-01-10 05:00:00 -8.1 0 Calma 4 Sudeste 0 -- -- 97
2021-01-10 04:00:00 -7.6 0 Calma 4 Sudeste 0 -- -- 98
2021-01-10 03:00:00 -8 2 Sudeste 3 Sudeste 0 -- -- 97
2021-01-10 02:00:00 -6.4 2 Sudeste 6 Sudeste 0 -- -- 97
2021-01-10 01:00:00 -4.3 3 Sudeste 11 Sudeste 0 -- -- 99
2021-01-10 00:00:00 -4.1 0 Calma 3 Sudeste 0 -- -- 92
2021-01-09 23:00:00 -0.7 0 Calma 13 Sudeste 0 -- -- 96
2021-01-09 22:00:00 -0.5 6 Sudeste 15 Sudeste 0 -- -- 97
2021-01-09 21:00:00 -0.4 8 Sudeste 15 Sudeste 0 -- -- 97
2021-01-09 20:00:00 -0.4 9 Sudeste 18 Sudeste 0 -- -- 96
2021-01-09 19:00:00 -0.2 12 Sudeste 22 Sur 0 -- -- 97
2021-01-09 18:00:00 0.1 13 Sudeste 24 Sur 0.2 -- -- 98
2021-01-09 17:00:00 0.6 12 Sudeste 22 Sudeste 1 -- -- 96
2021-01-09 16:00:00 0.9 16 Sudeste 24 Sudeste 1 -- -- 95
2021-01-09 15:00:00 0.7 17 Sudeste 28 Sudeste 1.8 -- -- 97
2021-01-09 14:00:00 0.8 19 Sudeste 30 Sudeste 1.8 -- -- 96
2021-01-09 13:00:00 0.6 17 Sudeste 31 Sudeste 1.2 -- -- 98
2021-01-09 12:00:00 0.6 18 Sudeste 32 Sudeste 0.2 -- -- 99
2021-01-09 11:00:00 0.4 19 Sudeste 38 Sudeste 0 -- -- 100
2021-01-09 10:00:00 0 27 Sudeste 39 Sudeste 0 -- -- 100
2021-01-09 09:00:00 -0.5 24 Sudeste 40 Sudeste 0 -- -- 100
2021-01-09 08:00:00 -0.6 26 Sudeste 41 Sudeste 0 -- -- 100
2021-01-09 07:00:00 -0.6 26 Sudeste 44 Sudeste 0 -- -- 100
2021-01-09 06:00:00 -0.6 24 Sudeste 42 Sudeste 0 -- -- 100
2021-01-09 05:00:00 -0.9 0 Calma -- -- 0 -- -- 100
2021-01-09 04:00:00 -1 0 Calma -- -- 0 -- -- 100
2021-01-09 03:00:00 -1 0 Calma -- -- 0 -- -- 100
2021-01-09 02:00:00 -1.2 0 Calma -- -- 0 -- -- 99
2021-01-09 01:00:00 -1.3 0 Calma -- -- 0 -- -- 99
2021-01-09 00:00:00 -1.3 0 Calma -- -- 0 -- -- 99
2021-01-08 23:00:00 -1.4 0 Calma -- -- 0 -- -- 99
2021-01-08 22:00:00 -1.2 0 Calma -- -- 0 -- -- 98
2021-01-08 21:00:00 -1.1 0 Calma -- -- 0 -- -- 99
2021-01-08 20:00:00 -0.9 0 Calma -- -- 0 -- -- 99
2021-01-08 19:00:00 -0.6 0 Calma -- -- 0 -- -- 98
2021-01-08 18:00:00 -0.3 0 Calma 26 Sudeste 0 -- -- 97
2021-01-08 17:00:00 0.1 14 Sudeste 29 Sudeste 0.2 -- -- 97
2021-01-08 16:00:00 0.5 6 Sudeste 19 Sudeste 0.6 -- -- 96
2021-01-08 15:00:00 0.4 9 Este 26 Sudeste 0.6 -- -- 96
2021-01-08 14:00:00 0.4 14 Este 28 Este 0.4 -- -- 95
2021-01-08 13:00:00 0.2 13 Este 30 Este 0.2 -- -- 95
2021-01-08 12:00:00 0 13 Sudeste 31 Este 0 -- -- 95
2021-01-08 11:00:00 -0.5 17 Este 28 Este 0 -- -- 96
2021-01-08 10:00:00 -0.6 8 Sudeste 20 Sudeste 0 -- -- 96
2021-01-08 09:00:00 -0.6 8 Sudeste 23 Este 0 -- -- 95
2021-01-08 08:00:00 -0.4 8 Sudeste 18 Sudeste 0 -- -- 92
2021-01-08 07:00:00 -0.6 6 Este 12 Sudeste 0 -- -- 93
2021-01-08 06:00:00 -0.6 0 Calma -- -- 0 -- -- 93
2021-01-08 05:00:00 -1.1 0 Calma -- -- 0 -- -- 97
2021-01-08 04:00:00 -1.4 0 Calma -- -- 0 -- -- 97
2021-01-08 03:00:00 -1.4 0 Calma -- -- 0 -- -- 96
2021-01-08 02:00:00 -1.3 0 Calma -- -- 0 -- -- 96
2021-01-08 01:00:00 -1.4 0 Calma -- -- 0 -- -- 96
2021-01-08 00:00:00 -1.3 0 Calma -- -- 0 -- -- 96
2021-01-07 23:00:00 -1.1 0 Calma -- -- 0 -- -- 94
2021-01-07 22:00:00 -1.2 0 Calma -- -- 0 -- -- 96
2021-01-07 21:00:00 -1.1 0 Calma -- -- 0 -- -- 96
2021-01-07 20:00:00 -1.2 0 Calma -- -- 0 -- -- 96
2021-01-07 19:00:00 -1.1 0 Calma -- -- 0 -- -- 97
2021-01-07 18:00:00 -0.8 0 Calma -- -- 0 -- -- 96
2021-01-07 17:00:00 -0.2 0 Calma -- -- 0.4 -- -- 96
2021-01-07 16:00:00 0 0 Calma -- -- 0.4 -- -- 94
2021-01-07 15:00:00 0.1 0 Calma -- -- 0.6 -- -- 93
2021-01-07 14:00:00 0 0 Calma -- -- 0.6 -- -- 94
2021-01-07 13:00:00 -0.1 0 Calma 15 Este 0.4 -- -- 94
2021-01-07 12:00:00 -0.2 5 Este 17 Este 0.2 -- -- 94
2021-01-07 11:00:00 -0.3 5 Este 16 Este 0 -- -- 95
2021-01-07 10:00:00 -0.8 0 Calma 10 Este 0 -- -- 97
2021-01-07 09:00:00 -1.4 6 Este 13 Este 0 -- -- 97
2021-01-07 08:00:00 -1.5 7 Este 13 Este 0 -- -- 96
2021-01-07 07:00:00 -1.4 5 Este 21 Este 0 -- -- 96
2021-01-07 06:00:00 -1.3 10 Este 19 Este 0 -- -- 96
2021-01-07 05:00:00 -1.4 8 Sudeste 24 Este 0 -- -- 95
2021-01-07 04:00:00 -1.3 11 Sudeste 25 Sudeste 0 -- -- 94
2021-01-07 03:00:00 -1.1 10 Sudeste 27 Sudeste 0 -- -- 90
2021-01-07 02:00:00 -0.6 16 Sudeste 29 Sudeste 0 -- -- 79
2021-01-07 01:00:00 -0.3 12 Sudeste 20 Sudeste 0 -- -- 71
2021-01-07 00:00:00 -0.2 8 Sudeste 19 Este 0 -- -- 69
2021-01-06 23:00:00 -0.1 8 Sudeste 19 Sudeste 0 -- -- 66
2021-01-06 22:00:00 -0.1 7 Sudeste 16 Este 0 -- -- 66
2021-01-06 21:00:00 -0.8 3 Sudeste 8 Este 0 -- -- 71
2021-01-06 20:00:00 -1.4 5 Sudeste 8 Sudeste 0 -- -- 73
2021-01-06 19:00:00 -1.1 0 Calma 14 Sur 0 -- -- 78
2021-01-06 18:00:00 0.6 9 Sur 18 Sur 0 -- -- 66
2021-01-06 17:00:00 2 10 Sur 16 Sur 0 -- -- 67
2021-01-06 16:00:00 4.9 4 Sudeste 11 Sudeste 0 -- -- 44
2021-01-06 15:00:00 5.1 3 Sur 8 Sur 0 -- -- 42
2021-01-06 14:00:00 5.9 2 Nordeste 10 Sudeste 0 -- -- 44
2021-01-06 13:00:00 4.9 4 Sur 10 Sudeste 0 -- -- 48
2021-01-06 12:00:00 4.9 5 Este 10 Este 0 -- -- 49
2021-01-06 11:00:00 3 4 Este 9 Este 0 -- -- 59
2021-01-06 10:00:00 -1.1 2 Este 6 Sudeste 0 -- -- 76
2021-01-06 09:00:00 -5.9 2 Sudeste 3 Sudeste 0 -- -- 90
2021-01-06 08:00:00 -6.1 2 Este 4 Nordeste 0 -- -- 85
2021-01-06 07:00:00 -4.8 2 Sudeste 7 Sur 0 -- -- 81
2021-01-06 06:00:00 -3.9 3 Sudeste 8 Sur 0 -- -- 79
2021-01-06 05:00:00 -3.1 3 Sur 9 Sur 0 -- -- 76
2021-01-06 04:00:00 -4.2 5 Sur 8 Sur 0 -- -- 86
2021-01-06 03:00:00 -5 3 Sur 6 Sur 0 -- -- 96
2021-01-06 02:00:00 -5.5 0 Calma 5 Sudeste 0 -- -- 92
2021-01-06 01:00:00 -4.9 3 Sudeste 5 Sudeste 0 -- -- 93
2021-01-06 00:00:00 -4.6 0 Calma 5 Nordeste 0 -- -- 90
2021-01-05 23:00:00 -4.5 0 Calma 4 Sur 0 -- -- 93
2021-01-05 22:00:00 -4.8 0 Calma 3 Sur 0 -- -- 92
2021-01-05 21:00:00 -4.4 0 Calma 2 Sudoeste 0 -- -- 92
2021-01-05 20:00:00 -3.9 0 Calma 2 Sudeste 0 -- -- 91
2021-01-05 19:00:00 -2.9 0 Calma 2 Sudoeste 0 -- -- 86
2021-01-05 18:00:00 -0.6 0 Calma 10 Noroeste 0 -- -- 75
2021-01-05 17:00:00 2.5 5 Noroeste 13 Noroeste 0 -- -- 60
2021-01-05 16:00:00 3.5 6 Noroeste 17 Noroeste 0 -- -- 53
2021-01-05 15:00:00 3.8 7 Noroeste 15 Noroeste 0 -- -- 51
2021-01-05 14:00:00 4.7 4 Noroeste 15 Oeste 0 -- -- 49
2021-01-05 13:00:00 3.9 7 Noroeste 14 Noroeste 0 -- -- 56
2021-01-05 12:00:00 2.6 3 Noroeste 8 Oeste 0 -- -- 66
2021-01-05 11:00:00 0.7 2 Sudoeste 5 Sudoeste 0 -- -- 78
2021-01-05 10:00:00 -2.2 0 Calma 2 Noroeste 0 -- -- 91
2021-01-05 09:00:00 -4.9 0 Calma 10 Norte 0 -- -- 90
2021-01-05 08:00:00 -5.6 2 Norte 6 Nordeste 0 -- -- 95
2021-01-05 07:00:00 -6.8 0 Calma 4 Nordeste 0 -- -- 96
2021-01-05 06:00:00 -6.9 0 Calma 2 Sur 0 -- -- 95
2021-01-05 05:00:00 -6.8 0 Calma 0 Calma 0 -- -- 95
2021-01-05 04:00:00 -6.5 0 Calma 2 Sur 0 -- -- 96
2021-01-05 03:00:00 -6.1 0 Calma 2 Sur 0 -- -- 96
2021-01-05 02:00:00 -5.8 0 Calma 2 Sudoeste 0 -- -- 96
2021-01-05 01:00:00 -5.3 0 Calma 2 Sudoeste 0 -- -- 96
2021-01-05 00:00:00 -4.5 0 Calma 5 Sudoeste 0 -- -- 96
2021-01-04 23:00:00 -3.2 0 Calma 7 Noroeste 0 -- -- 97
2021-01-04 22:00:00 -3 2 Sudoeste 5 Oeste 0 -- -- 95
2021-01-04 21:00:00 -2 0 Calma 10 Oeste 0 -- -- 91
2021-01-04 20:00:00 -1.1 5 Oeste 10 Oeste 0 -- -- 89
2021-01-04 19:00:00 -0.6 2 Oeste 11 Oeste 0 -- -- 78
2021-01-04 18:00:00 0.5 7 Oeste 17 Oeste 0 -- -- 73
2021-01-04 17:00:00 1.4 7 Oeste 20 Noroeste 0 -- -- 67
2021-01-04 16:00:00 2.2 12 Noroeste 28 Oeste 0 -- -- 62
2021-01-04 15:00:00 2.3 14 Oeste 25 Oeste 0 -- -- 63
2021-01-04 14:00:00 1.5 9 Noroeste 22 Oeste 0 -- -- 71
2021-01-04 13:00:00 1.4 9 Noroeste 20 Oeste 0 -- -- 73
2021-01-04 12:00:00 0.8 10 Noroeste 21 Noroeste 0 -- -- 78
2021-01-04 11:00:00 -0.2 8 Oeste 17 Oeste 0.2 -- -- 86
2021-01-04 10:00:00 -2 4 Oeste 9 Noroeste 0 -- -- 95
2021-01-04 09:00:00 -3.4 3 Oeste 10 Oeste 0 -- -- 97
2021-01-04 08:00:00 -2.8 3 Noroeste 14 Oeste 0 -- -- 97
2021-01-04 07:00:00 -2.8 2 Oeste 12 Oeste 0 -- -- 96
2021-01-04 06:00:00 -2.2 6 Oeste 14 Oeste 0 -- -- 96
2021-01-04 05:00:00 -2.1 2 Oeste 8 Sudoeste 0 -- -- 96
2021-01-04 04:00:00 -2.1 2 Oeste 10 Sudoeste 0 -- -- 95
2021-01-04 03:00:00 -2.2 4 Oeste 9 Oeste 0 -- -- 93
2021-01-04 02:00:00 -1.9 0 Calma 11 Oeste 0 -- -- 91
2021-01-04 01:00:00 -2.8 3 Oeste 9 Noroeste 0 -- -- 94
2021-01-04 00:00:00 -2.4 2 Noroeste 8 Oeste 0 -- -- 88
2021-01-03 23:00:00 -1.1 6 Noroeste 18 Oeste 0 -- -- 83
2021-01-03 22:00:00 -0.2 9 Oeste 18 Oeste 0 -- -- 78
2021-01-03 21:00:00 0.5 5 Oeste 19 Oeste 0 -- -- 72
2021-01-03 20:00:00 0.7 7 Oeste 13 Oeste 0 -- -- 69
2021-01-03 19:00:00 1 8 Oeste 17 Oeste 0 -- -- 70
2021-01-03 18:00:00 1.5 9 Oeste 19 Oeste 0 -- -- 72
2021-01-03 17:00:00 2.3 8 Noroeste 22 Noroeste 0 -- -- 69
2021-01-03 16:00:00 3.6 11 Oeste 26 Norte 0 -- -- 62
2021-01-03 15:00:00 3.9 12 Noroeste 23 Noroeste 0 -- -- 58
2021-01-03 14:00:00 4 12 Noroeste 28 Noroeste 0 -- -- 56
2021-01-03 13:00:00 3.6 13 Noroeste 22 Noroeste 0 -- -- 55
2021-01-03 12:00:00 2.6 13 Noroeste 27 Norte 0 -- -- 63
2021-01-03 11:00:00 0.4 10 Norte 25 Noroeste 0 -- -- 72
2021-01-03 10:00:00 -2.7 3 Noroeste 8 Noroeste 0 -- -- 83
2021-01-03 09:00:00 -5.5 3 Noroeste 7 Noroeste 0 -- -- 91
2021-01-03 08:00:00 -4.7 6 Noroeste 11 Noroeste 0 -- -- 88
2021-01-03 07:00:00 -4.9 6 Noroeste 15 Noroeste 0 -- -- 87
2021-01-03 06:00:00 -5.7 0 Calma 8 Norte 0 -- -- 88
2021-01-03 05:00:00 -4.7 4 Norte 15 Noroeste 0 -- -- 84
2021-01-03 04:00:00 -3.7 8 Noroeste 23 Noroeste 0 -- -- 82
2021-01-03 03:00:00 -3.9 5 Norte 22 Noroeste 0 -- -- 81
2021-01-03 02:00:00 -3.1 12 Norte 29 Norte 0 -- -- 78
2021-01-03 01:00:00 -3 9 Norte 31 Noroeste 0 -- -- 79
2021-01-03 00:00:00 -2.6 10 Norte 29 Norte 0 -- -- 77
2021-01-02 23:00:00 -2.1 12 Noroeste 29 Noroeste 0 -- -- 75
2021-01-02 22:00:00 -1.7 10 Norte 31 Norte 0 -- -- 75
2021-01-02 21:00:00 -1.5 13 Norte 35 Norte 0 -- -- 76
2021-01-02 20:00:00 -1.1 8 Noroeste 32 Noroeste 0 -- -- 75
2021-01-02 19:00:00 -0.7 15 Norte 33 Norte 0 -- -- 75
2021-01-02 18:00:00 -0.2 14 Norte 39 Noroeste 0 -- -- 73
2021-01-02 17:00:00 0.7 18 Norte 36 Norte 0 -- -- 71
2021-01-02 16:00:00 1.1 19 Norte 46 Noroeste 0 -- -- 71
2021-01-02 15:00:00 1.3 23 Noroeste 50 Noroeste 0 -- -- 72
2021-01-02 14:00:00 1 23 Noroeste 48 Noroeste 0 -- -- 70